TFFFTLPC

Guest
Details From TFFF - Le Lamentin
To TLPC - Castries - George F L Charles (vigie)
Flight Number -
Tags Generated
Created
Modified
Stats Distance 34 nm / 64 km
Max Altitude 0 ft / 0 m
Waypoints 2
Social Downloads 1
Likes 0
Share VATSIM

Download

Looking for another format? Having issues loading an existing format? Contact us
Advertisement - Login to hide

Notes

Generated

Route

TFFF TLPC

ID Type Via Altitude (ft/m) Position (lat/lon) Dist (leg/tot) Name
O TFFF APT - 0 / 0 14.58843 / -61.01831 - / 0 nm
O TLPC APT - 0 / 0 14.01772 / -61.00122 34 / 34 nm

Altitude Profile

Advertisement - Login to hide

TFFF

Details ICAO TFFF (FDF)
Name Martinique Aime Cesaire Airport
Region France (Guadeloupe, Martinique, Saint Barthélemy, Saint Martin)
Timezone America/Martinique (UTC-4.0)
Stats Elevation 16 ft / 5 m (AMSL)
Location 14.590800° -61.004600°
Runways 1
Magnetic Variation 15.084° W

METAR

TFFF 211700Z AUTO 10014KT 9999 SCT025/// BKN030/// BKN046/// ///TCU 31/24 Q1009 TEMPO 2000 SHRA SCT015CB

Decode

TAF

TAF TFFF 211000Z 2112/2212 12010KT 9999 SCT028 TEMPO 2112/2212 4000 SHRA SCT018TCU PROB30 TEMPO 2116/2206 2000 SHRA SCT015CB

Decode

Departure Runways

ID Width Length Bearing (true/mag) Surface Threshold Overrun Markings Lighting
10 148 ft / 45 m 9,852 ft / 3,003 m 79.94° / 95.03° ASPHALT 0 ft / 0 m 52 ft / 16 m PREC-APP CENTERLINE EDGE THRESHOLD ALSF-II
28 148 ft / 45 m 9,852 ft / 3,003 m 259.95° / 275.03° ASPHALT 817 ft / 249 m 994 ft / 303 m PREC-APP CENTERLINE EDGE THRESHOLD ALSF-II

TLPC

Details ICAO TLPC (SLU)
Name Castries/George F L Charles
Region Saint Lucia
Timezone America/St_Lucia (UTC-4.0)
Stats Elevation 22 ft / 7 m (AMSL)
Location 14.019700° -60.993400°
Runways 1
Magnetic Variation 15.101° W

METAR

TLPC 211700Z 09005KT 9999 FEW007 BKN021 28/25 Q1010 NOSIG

Decode

TAF

TAF TLPC 211100Z 2112/2212 10007KT 9999 SCT024 TEMPO 2112/2212 5000 SHRA FEW018TCU BKN020 BKN038 PROB30 TEMPO 2112/2212 3000 TSRA FEW006 FEW016CB

Decode

Destination Runways

ID Width Length Bearing (true/mag) Surface Threshold Overrun Markings Lighting
09 148 ft / 45 m 5,731 ft / 1,747 m 75.34° / 90.44° ASPHALT 400 ft / 122 m 0 ft / 0 m APP EDGE THRESHOLD
27 148 ft / 45 m 5,731 ft / 1,747 m 255.34° / 270.44° ASPHALT 925 ft / 282 m 0 ft / 0 m APP EDGE THRESHOLD

Popular Alternatives